Time;durP1;ratioP1;P1;durP2;ratioP2;P2;SDS_P1;SDS_P2;PMS_P1;PMS_P2;Temp;Humidity;BMP_temperature;BMP_pressure;BME280_temperature;BME280_humidity;BME280_pressure;Samples;Min_cycle;Max_cycle;Signal;HPM_P1;HPM_P2
2021/07/30 00:01:22;;;;;;;13.35;5.53;;;13.90;92.90;;;;;;6251056;22;20007;-86
2021/07/30 00:03:55;;;;;;;11.45;5.05;;;13.80;93.10;;;;;;6277622;22;20457;-86
2021/07/30 00:06:47;;;;;;;15.15;5.10;;;13.80;93.30;;;;;;6251333;22;20068;-85
2021/07/30 00:09:39;;;;;;;16.02;5.47;;;13.70;93.40;;;;;;6260169;22;20021;-87
2021/07/30 00:12:09;;;;;;;19.70;5.38;;;13.60;93.60;;;;;;6252766;22;20462;-89
2021/07/30 00:14:35;;;;;;;17.33;5.95;;;13.60;93.70;;;;;;6277581;22;20356;-86
2021/07/30 00:17:06;;;;;;;14.43;5.35;;;13.60;93.90;;;;;;6248153;22;20024;-86
2021/07/30 00:19:38;;;;;;;20.02;5.85;;;13.50;94.10;;;;;;6275811;22;20432;-88
2021/07/30 00:22:46;;;;;;;13.52;5.78;;;13.50;94.60;;;;;;6275625;22;20011;-86
2021/07/30 00:25:38;;;;;;;18.20;6.00;;;13.40;94.10;;;;;;6184382;22;20030;-86
2021/07/30 00:28:04;;;;;;;16.90;6.20;;;13.40;94.50;;;;;;6251510;22;20022;-90
2021/07/30 00:31:31;;;;;;;12.48;6.07;;;13.40;94.50;;;;;;6227763;22;20219;-86
2021/07/30 00:34:09;;;;;;;13.15;6.65;;;13.40;94.40;;;;;;6253481;22;20072;-86
2021/07/30 00:36:41;;;;;;;18.15;6.00;;;13.40;94.50;;;;;;6203355;22;20011;-88
2021/07/30 00:39:07;;;;;;;12.68;6.38;;;13.40;94.60;;;;;;6275916;22;20038;-85
2021/07/30 00:41:39;;;;;;;15.23;6.38;;;13.40;94.70;;;;;;6226040;22;20122;-87
2021/07/30 00:44:06;;;;;;;15.45;6.03;;;13.30;94.70;;;;;;6249537;22;20352;-85
2021/07/30 00:46:53;;;;;;;14.85;6.20;;;13.30;94.80;;;;;;6226476;22;20014;-87
2021/07/30 00:49:19;;;;;;;12.30;6.32;;;13.30;94.80;;;;;;6249473;22;20065;-87
2021/07/30 00:52:11;;;;;;;19.20;7.22;;;13.30;94.90;;;;;;6224470;22;20015;-86
2021/07/30 00:54:39;;;;;;;18.30;6.95;;;13.20;94.90;;;;;;6230866;22;20018;-87
2021/07/30 00:57:08;;;;;;;16.30;6.78;;;13.20;95.00;;;;;;6193018;22;20019;-86
2021/07/30 00:59:39;;;;;;;15.82;7.47;;;13.20;95.10;;;;;;6217992;22;20022;-87
2021/07/30 01:02:29;;;;;;;20.20;6.97;;;13.20;95.10;;;;;;6243397;22;20011;-88
2021/07/30 01:05:00;;;;;;;14.82;7.03;;;13.20;95.00;;;;;;6218707;22;20015;-86
2021/07/30 01:07:26;;;;;;;16.15;7.50;;;13.10;95.10;;;;;;6254391;22;20077;-85
2021/07/30 01:10:11;;;;;;;15.35;7.25;;;13.10;95.20;;;;;;6246542;22;20068;-86
2021/07/30 01:12:37;;;;;;;19.25;7.60;;;13.10;95.20;;;;;;6219075;22;20399;-87
2021/07/30 01:15:44;;;;;;;17.30;7.47;;;13.10;95.40;;;;;;6242038;22;20448;-87
2021/07/30 01:18:17;;;;;;;17.75;7.43;;;13.00;95.30;;;;;;6252349;22;20011;-88
2021/07/30 01:20:44;;;;;;;17.80;8.10;;;13.00;95.40;;;;;;6269241;22;20019;-85
2021/07/30 01:23:29;;;;;;;17.08;7.68;;;13.00;95.40;;;;;;6245076;22;20015;-86
2021/07/30 01:26:07;;;;;;;16.08;7.72;;;13.00;95.50;;;;;;6278616;22;20069;-86
2021/07/30 01:28:52;;;;;;;26.60;8.40;;;13.00;95.50;;;;;;6242900;22;20034;-87
2021/07/30 01:31:18;;;;;;;18.15;8.30;;;13.00;95.60;;;;;;6243304;22;20015;-89
2021/07/30 01:36:34;;;;;;;14.35;7.63;;;13.00;95.70;;;;;;6264428;22;20019;-86
2021/07/30 01:39:03;;;;;;;13.27;8.13;;;13.00;95.70;;;;;;6237565;22;20091;-86
2021/07/30 01:41:34;;;;;;;21.88;8.85;;;13.00;95.80;;;;;;6214218;22;20026;-87
2021/07/30 01:44:06;;;;;;;20.35;8.73;;;13.00;95.80;;;;;;6215250;22;20262;-91
2021/07/30 01:46:32;;;;;;;16.60;8.07;;;13.00;95.80;;;;;;6251159;22;20026;-88
2021/07/30 01:48:58;;;;;;;17.58;8.48;;;12.90;95.80;;;;;;6237465;22;20094;-88
2021/07/30 01:51:24;;;;;;;18.73;8.45;;;12.90;95.80;;;;;;6165166;22;20062;-88
2021/07/30 01:53:51;;;;;;;20.52;9.55;;;12.90;95.90;;;;;;6162937;22;20088;-85
2021/07/30 01:56:16;;;;;;;16.20;8.32;;;12.80;95.90;;;;;;6238843;22;20026;-89
2021/07/30 01:58:42;;;;;;;18.90;8.60;;;12.80;96.00;;;;;;6186166;22;20012;-88
2021/07/30 02:01:09;;;;;;;18.63;9.15;;;12.80;96.10;;;;;;6186322;22;20464;-88
2021/07/30 02:03:35;;;;;;;19.27;8.77;;;12.80;96.10;;;;;;6187428;22;20344;-86
2021/07/30 02:06:12;;;;;;;20.90;9.38;;;12.80;96.20;;;;;;6164235;22;20202;-84
2021/07/30 02:08:46;;;;;;;15.82;9.15;;;12.70;96.30;;;;;;6212816;22;20021;-86
2021/07/30 02:11:21;;;;;;;21.95;9.20;;;12.70;96.30;;;;;;6212959;22;20014;-86
2021/07/30 02:14:27;;;;;;;21.92;9.35;;;12.70;96.40;;;;;;6186938;22;20030;-87
2021/07/30 02:16:56;;;;;;;23.63;9.63;;;12.70;96.40;;;;;;6237997;22;20066;-86
2021/07/30 02:19:23;;;;;;;18.90;9.52;;;12.70;96.40;;;;;;6215972;22;20016;-87
2021/07/30 02:24:43;;;;;;;19.05;9.32;;;12.60;96.50;;;;;;6243554;22;20020;-87
2021/07/30 02:27:12;;;;;;;22.67;9.85;;;12.60;96.50;;;;;;6214070;22;20023;-87
2021/07/30 02:29:38;;;;;;;23.98;10.57;;;12.60;96.70;;;;;;6185887;22;20041;-87
2021/07/30 02:32:06;;;;;;;16.40;10.13;;;12.60;96.70;;;;;;6189122;22;20004;-86
2021/07/30 02:34:32;;;;;;;23.00;10.05;;;12.60;96.80;;;;;;6212336;22;20008;-86
2021/07/30 02:37:07;;;;;;;20.52;10.35;;;12.60;97.00;;;;;;6249375;22;20039;-87
2021/07/30 02:39:39;;;;;;;21.73;10.63;;;12.50;97.00;;;;;;6236742;22;20011;-86
2021/07/30 02:42:07;;;;;;;21.25;11.05;;;12.60;97.40;;;;;;6247603;22;20628;-85
2021/07/30 02:44:33;;;;;;;26.52;10.88;;;12.50;97.10;;;;;;6186883;22;20117;-86
2021/07/30 02:46:59;;;;;;;22.23;10.90;;;12.50;97.20;;;;;;6239800;22;20012;-86
2021/07/30 02:49:24;;;;;;;25.08;11.27;;;12.50;97.20;;;;;;6212099;22;20016;-86
2021/07/30 02:51:50;;;;;;;22.85;10.95;;;12.50;97.30;;;;;;6236529;22;20022;-87
2021/07/30 02:54:25;;;;;;;23.80;10.63;;;12.50;97.40;;;;;;6187581;22;20090;-86
2021/07/30 02:56:51;;;;;;;25.60;11.50;;;12.50;97.50;;;;;;6211297;22;20020;-86
2021/07/30 02:59:38;;;;;;;27.02;11.30;;;12.50;97.50;;;;;;6211687;22;20007;-87
2021/07/30 03:02:08;;;;;;;19.65;11.60;;;12.50;97.50;;;;;;6212621;22;20408;-87
2021/07/30 03:04:52;;;;;;;22.15;11.35;;;12.50;97.60;;;;;;6185101;22;20015;-86
2021/07/30 03:07:26;;;;;;;25.67;12.13;;;12.50;97.70;;;;;;6210948;22;20026;-86
2021/07/30 03:10:28;;;;;;;23.40;11.85;;;12.50;97.80;;;;;;6237517;22;20036;-88
2021/07/30 03:12:59;;;;;;;25.67;12.38;;;12.50;97.80;;;;;;6220721;22;20027;-85
2021/07/30 03:15:54;;;;;;;24.20;11.98;;;12.50;98.00;;;;;;6180614;23;20024;-87
2021/07/30 03:18:49;;;;;;;25.83;12.27;;;12.50;98.00;;;;;;6175999;23;20020;-87
2021/07/30 03:21:15;;;;;;;30.80;12.52;;;12.50;98.00;;;;;;6198162;23;20028;-87
2021/07/30 03:24:07;;;;;;;26.20;12.77;;;12.60;98.20;;;;;;6175566;23;20044;-86
2021/07/30 03:26:36;;;;;;;24.73;12.23;;;12.50;98.30;;;;;;6177940;23;20012;-87
2021/07/30 03:32:29;;;;;;;23.73;11.93;;;12.50;98.40;;;;;;6183144;23;20012;-86
2021/07/30 03:34:56;;;;;;;24.33;11.82;;;12.60;98.30;;;;;;6095462;23;20013;-88
2021/07/30 03:41:13;;;;;;;19.95;11.27;;;12.60;98.30;;;;;;6200106;23;20051;-86
2021/07/30 03:43:39;;;;;;;24.05;12.55;;;12.60;98.30;;;;;;6153923;23;20055;-86
2021/07/30 03:46:07;;;;;;;25.95;12.40;;;12.60;98.40;;;;;;6175984;23;20019;-86
2021/07/30 03:48:48;;;;;;;21.95;12.05;;;12.60;98.40;;;;;;6152658;23;20412;-86
2021/07/30 03:51:14;;;;;;;25.33;12.30;;;12.60;98.40;;;;;;6187692;23;20205;-86
2021/07/30 03:54:22;;;;;;;29.20;12.93;;;12.60;98.50;;;;;;6152871;23;20023;-86
2021/07/30 03:57:07;;;;;;;24.63;12.05;;;12.60;98.40;;;;;;6173660;23;20016;-85
2021/07/30 03:59:58;;;;;;;22.23;11.27;;;12.50;98.40;;;;;;6180047;23;20418;-86
2021/07/30 04:02:27;;;;;;;21.67;11.52;;;12.60;98.50;;;;;;6185727;23;20024;-89
2021/07/30 04:04:53;;;;;;;26.27;12.20;;;12.60;98.50;;;;;;6150289;23;20016;-85
2021/07/30 04:07:41;;;;;;;21.02;11.55;;;12.60;98.50;;;;;;6177236;23;20096;-86
2021/07/30 04:10:09;;;;;;;21.25;11.68;;;12.50;98.50;;;;;;6176382;23;20016;-85
2021/07/30 04:12:36;;;;;;;29.48;12.65;;;12.60;98.70;;;;;;6181746;23;20011;-85
2021/07/30 04:15:02;;;;;;;27.92;11.90;;;12.60;98.50;;;;;;6176577;23;20074;-85
2021/07/30 04:17:31;;;;;;;22.67;11.63;;;12.60;98.60;;;;;;6202040;23;20047;-86
2021/07/30 04:19:57;;;;;;;23.35;12.07;;;12.60;98.60;;;;;;6178148;23;20079;-88
2021/07/30 04:22:23;;;;;;;23.23;11.65;;;12.60;98.60;;;;;;6179337;23;20030;-87
2021/07/30 04:24:48;;;;;;;21.40;11.43;;;12.70;98.60;;;;;;6147712;23;20020;-84
2021/07/30 04:27:15;;;;;;;20.83;11.02;;;12.60;98.60;;;;;;6176419;23;20047;-88
2021/07/30 04:29:42;;;;;;;24.88;11.98;;;12.70;98.60;;;;;;6177957;23;20062;-85
2021/07/30 04:32:17;;;;;;;27.13;11.88;;;12.70;98.60;;;;;;6135377;23;20016;-86
2021/07/30 04:34:46;;;;;;;21.77;11.25;;;12.70;98.50;;;;;;6211255;23;20013;-85
2021/07/30 04:37:14;;;;;;;19.45;10.75;;;12.80;98.60;;;;;;6185852;23;20016;-86
2021/07/30 04:40:03;;;;;;;23.13;11.05;;;12.80;98.50;;;;;;6186003;23;20013;-86
2021/07/30 04:42:48;;;;;;;21.83;11.43;;;12.80;98.50;;;;;;6189875;23;20031;-87
2021/07/30 04:46:23;;;;;;;20.63;11.32;;;12.80;98.40;;;;;;6187506;23;20012;-85
2021/07/30 04:49:12;;;;;;;30.45;11.48;;;12.80;98.30;;;;;;6202233;23;20019;-86
2021/07/30 04:52:06;;;;;;;26.33;11.93;;;12.80;98.60;;;;;;6161885;23;20015;-87
2021/07/30 04:54:32;;;;;;;21.95;11.48;;;13.00;98.30;;;;;;6211050;23;20087;-86
2021/07/30 04:57:13;;;;;;;23.17;11.90;;;12.90;98.30;;;;;;6210519;23;20011;-86
2021/07/30 05:00:03;;;;;;;21.35;11.40;;;13.00;98.40;;;;;;6163326;23;20044;-86
2021/07/30 05:02:48;;;;;;;22.00;11.60;;;13.00;98.30;;;;;;6210232;23;20033;-85
2021/07/30 05:05:18;;;;;;;23.55;11.30;;;13.00;98.30;;;;;;6186749;23;20009;-86
2021/07/30 05:07:44;;;;;;;27.40;12.10;;;13.00;98.30;;;;;;6160616;23;20392;-85
2021/07/30 05:10:13;;;;;;;18.85;11.55;;;13.00;98.30;;;;;;6210108;23;20035;-86
2021/07/30 05:12:44;;;;;;;19.40;11.18;;;13.10;98.30;;;;;;6187047;23;20119;-86
2021/07/30 05:15:40;;;;;;;19.02;10.70;;;13.10;98.30;;;;;;6160509;23;20470;-85
2021/07/30 05:18:29;;;;;;;30.15;11.30;;;13.20;98.30;;;;;;6160601;23;20032;-84
2021/07/30 05:21:15;;;;;;;23.33;11.48;;;13.20;98.50;;;;;;6219939;23;20016;-85
2021/07/30 05:23:50;;;;;;;24.77;11.30;;;13.30;98.10;;;;;;6213813;23;20009;-85
2021/07/30 05:26:17;;;;;;;23.08;11.90;;;13.40;98.10;;;;;;6210569;23;20493;-85
2021/07/30 05:29:12;;;;;;;24.70;11.20;;;13.40;98.10;;;;;;6186051;23;20012;-85
2021/07/30 05:31:44;;;;;;;24.15;10.80;;;13.50;98.00;;;;;;6181934;23;20327;-85
2021/07/30 05:34:38;;;;;;;21.08;11.50;;;13.60;98.00;;;;;;6154224;23;20019;-85
2021/07/30 05:37:33;;;;;;;25.50;11.02;;;13.70;97.90;;;;;;6176772;23;20013;-84
2021/07/30 05:40:02;;;;;;;20.23;11.00;;;13.80;98.00;;;;;;6146344;23;20013;-85
2021/07/30 05:42:47;;;;;;;24.58;10.38;;;13.90;97.70;;;;;;6202831;23;20008;-85
2021/07/30 05:45:17;;;;;;;25.27;10.30;;;13.90;97.60;;;;;;6198756;23;20051;-86
2021/07/30 05:48:05;;;;;;;20.77;10.73;;;14.00;97.50;;;;;;6185108;23;20079;-85
2021/07/30 05:50:54;;;;;;;23.33;10.70;;;14.10;97.40;;;;;;6212534;23;20016;-86
2021/07/30 05:54:28;;;;;;;20.77;10.35;;;14.20;97.40;;;;;;6157265;23;20536;-85
2021/07/30 05:57:37;;;;;;;19.98;9.90;;;14.30;97.20;;;;;;6069309;23;20059;-86
2021/07/30 06:03:54;;;;;;;20.38;9.82;;;14.60;97.00;;;;;;6168923;23;20394;-86
2021/07/30 06:06:32;;;;;;;17.00;10.35;;;14.70;96.90;;;;;;6146184;23;20032;-86
2021/07/30 06:09:01;;;;;;;21.48;9.82;;;14.80;96.90;;;;;;6148675;23;20024;-86
2021/07/30 06:11:42;;;;;;;29.13;10.43;;;14.80;96.80;;;;;;6161090;23;20020;-86
2021/07/30 06:14:24;;;;;;;21.73;10.45;;;14.90;96.70;;;;;;6163212;22;20021;-86
2021/07/30 06:16:57;;;;;;;23.48;10.00;;;14.90;96.70;;;;;;6150325;23;20017;-86
2021/07/30 06:19:44;;;;;;;17.52;9.60;;;15.00;96.70;;;;;;6145210;23;20009;-86
2021/07/30 06:22:10;;;;;;;17.85;10.20;;;15.00;96.70;;;;;;6173651;23;20021;-85
2021/07/30 06:28:25;;;;;;;23.27;9.82;;;15.20;96.60;;;;;;6189041;23;20021;-86
2021/07/30 06:30:57;;;;;;;19.92;9.60;;;15.20;96.40;;;;;;6121289;23;20044;-85
2021/07/30 06:37:22;;;;;;;24.05;10.05;;;15.30;96.30;;;;;;6123292;23;20029;-86
2021/07/30 06:39:49;;;;;;;21.02;9.43;;;15.40;96.10;;;;;;6171816;23;20009;-85
2021/07/30 06:42:15;;;;;;;19.35;9.93;;;15.40;96.10;;;;;;6160766;23;20032;-86
2021/07/30 06:44:53;;;;;;;22.60;10.20;;;15.50;96.00;;;;;;6172518;23;20029;-86
2021/07/30 06:47:23;;;;;;;18.20;9.80;;;15.50;95.90;;;;;;6176446;23;20028;-86
2021/07/30 06:49:52;;;;;;;20.27;9.35;;;15.60;95.80;;;;;;6171231;23;20013;-85
2021/07/30 06:55:04;;;;;;;18.52;9.75;;;15.80;95.40;;;;;;6263808;22;20376;-86
2021/07/30 06:57:32;;;;;;;19.92;9.23;;;15.80;95.30;;;;;;6187485;22;20064;-86
2021/07/30 07:00:09;;;;;;;17.80;9.07;;;15.80;95.20;;;;;;6210806;22;20083;-86
2021/07/30 07:08:28;;;;;;;26.80;10.65;;;16.00;95.20;;;;;;6232270;22;20041;-86
2021/07/30 07:11:20;;;;;;;19.80;9.90;;;16.10;94.90;;;;;;6239100;22;20397;-85
2021/07/30 07:14:12;;;;;;;23.20;9.20;;;16.20;95.00;;;;;;6184964;23;20344;-85
2021/07/30 07:20:30;;;;;;;17.63;9.27;;;16.40;95.00;;;;;;6196936;23;20040;-86
2021/07/30 07:25:53;;;;;;;21.05;10.27;;;16.60;94.50;;;;;;6246120;22;20414;-87
2021/07/30 07:28:50;;;;;;;22.88;9.57;;;16.70;94.40;;;;;;6236845;22;20015;-86
2021/07/30 07:39:32;;;;;;;;;;;;;;;;;;;;;
2021/07/30 07:42:56;;;;;;;;;;;;;;;;;;;;;
2021/07/30 07:45:32;;;;;;;;;;;17.20;94.30;;;;;;6024852;23;20385;-85
2021/07/30 07:47:58;;;;;;;22.38;9.00;;;17.30;94.20;;;;;;5993540;23;19924;-86
2021/07/30 07:50:27;;;;;;;18.35;8.88;;;17.30;94.10;;;;;;6062935;23;20022;-86
2021/07/30 07:53:34;;;;;;;19.77;9.02;;;17.40;94.00;;;;;;6082805;23;20022;-86
2021/07/30 08:00:11;;;;;;;23.02;8.18;;;17.40;93.40;;;;;;6145843;23;20009;-84
2021/07/30 08:02:53;;;;;;;21.85;8.60;;;17.40;93.60;;;;;;6145485;23;20497;-86
2021/07/30 08:05:19;;;;;;;16.90;7.82;;;17.50;93.60;;;;;;6147629;23;20031;-85
2021/07/30 08:18:36;;;;;;;22.15;9.25;;;17.70;93.10;;;;;;6192171;23;20028;-86
2021/07/30 08:25:36;;;;;;;18.75;7.05;;;18.00;92.70;;;;;;6260883;22;20046;-85
2021/07/30 08:28:37;;;;;;;17.70;6.70;;;18.10;92.70;;;;;;6238964;22;20031;-85
2021/07/30 08:31:28;;;;;;;18.42;7.70;;;18.10;91.90;;;;;;6249020;22;20012;-85
2021/07/30 08:34:00;;;;;;;12.57;5.95;;;18.20;91.80;;;;;;6239004;22;20019;-85
2021/07/30 08:37:10;;;;;;;16.23;6.30;;;18.20;91.80;;;;;;6263581;22;20095;-86
2021/07/30 08:39:37;;;;;;;19.38;6.13;;;18.30;92.10;;;;;;6237368;22;20027;-86
2021/07/30 08:42:05;;;;;;;16.23;6.20;;;18.30;91.30;;;;;;6213830;22;20343;-86
2021/07/30 08:44:32;;;;;;;16.63;6.43;;;18.30;91.10;;;;;;6261787;22;20018;-87
2021/07/30 08:47:15;;;;;;;19.67;7.13;;;18.40;91.30;;;;;;6263362;22;20020;-87
2021/07/30 08:53:24;;;;;;;17.88;6.88;;;18.60;90.70;;;;;;6238107;22;20023;-87
2021/07/30 08:55:54;;;;;;;17.45;6.88;;;18.60;90.60;;;;;;6240183;22;20415;-85
2021/07/30 08:58:29;;;;;;;18.08;7.28;;;18.70;90.10;;;;;;6236354;22;20470;-85
2021/07/30 09:01:00;;;;;;;13.82;5.55;;;18.70;90.10;;;;;;6212425;22;20099;-85
2021/07/30 09:04:03;;;;;;;17.02;6.15;;;18.80;89.10;;;;;;6203788;23;20024;-85
2021/07/30 09:06:51;;;;;;;16.45;6.78;;;18.80;89.20;;;;;;6242425;23;20020;-86
2021/07/30 09:09:21;;;;;;;16.42;6.35;;;18.80;89.70;;;;;;6208532;23;20414;-85
2021/07/30 09:12:06;;;;;;;17.92;6.72;;;18.90;90.00;;;;;;6186872;23;20039;-86
2021/07/30 09:14:43;;;;;;;15.48;5.75;;;19.00;90.00;;;;;;6209700;23;20034;-86
2021/07/30 09:17:14;;;;;;;17.23;6.30;;;19.00;88.10;;;;;;6230800;23;20091;-86
2021/07/30 09:20:02;;;;;;;14.68;6.22;;;19.10;87.80;;;;;;6156673;23;20313;-85
2021/07/30 09:29:45;;;;;;;14.45;5.93;;;19.20;87.50;;;;;;6100704;22;20026;-86
2021/07/30 09:32:34;;;;;;;14.98;6.45;;;19.20;87.80;;;;;;6202111;23;20059;-86
2021/07/30 09:38:37;;;;;;;16.73;6.18;;;19.30;86.40;;;;;;6111301;23;20032;-85
2021/07/30 09:41:25;;;;;;;12.75;5.88;;;19.20;85.60;;;;;;6084202;23;20016;-86
2021/07/30 09:47:59;;;;;;;10.38;5.70;;;19.30;85.90;;;;;;6177779;23;20094;-85
2021/07/30 09:50:28;;;;;;;16.70;5.57;;;19.40;85.90;;;;;;6176611;23;20047;-85
2021/07/30 09:53:34;;;;;;;14.73;5.55;;;19.30;84.80;;;;;;6169061;23;20017;-86
2021/07/30 09:56:52;;;;;;;10.75;5.38;;;19.30;85.10;;;;;;6173588;23;20017;-86
2021/07/30 09:59:44;;;;;;;12.77;5.43;;;19.30;85.10;;;;;;6082352;23;20231;-86
2021/07/30 10:02:48;;;;;;;12.32;5.90;;;19.20;84.40;;;;;;6085065;23;20045;-87
2021/07/30 10:05:46;;;;;;;12.77;5.68;;;19.20;84.10;;;;;;6224276;22;20045;-85
2021/07/30 10:12:06;;;;;;;11.27;5.00;;;19.30;83.10;;;;;;6050412;23;20093;-86
2021/07/30 10:14:35;;;;;;;15.45;5.88;;;19.30;81.90;;;;;;6008934;23;20613;-87
2021/07/30 10:17:21;;;;;;;14.05;5.05;;;19.40;81.80;;;;;;5987164;23;20022;-86
2021/07/30 10:20:12;;;;;;;12.90;4.97;;;19.40;82.20;;;;;;6036296;23;20018;-86
2021/07/30 10:23:23;;;;;;;12.75;4.95;;;19.50;81.90;;;;;;6059464;23;20510;-87
2021/07/30 10:26:03;;;;;;;11.60;5.45;;;19.50;81.70;;;;;;6068113;23;20049;-87
2021/07/30 10:28:34;;;;;;;8.18;4.63;;;19.60;81.80;;;;;;6056216;23;20509;-86
2021/07/30 10:31:22;;;;;;;10.00;4.75;;;19.70;81.60;;;;;;6075749;23;20024;-87
2021/07/30 10:34:02;;;;;;;9.43;4.57;;;19.70;82.70;;;;;;6191236;22;20109;-85
2021/07/30 10:36:46;;;;;;;11.68;5.03;;;19.80;81.10;;;;;;6182226;23;20035;-86
2021/07/30 10:39:41;;;;;;;;;;;;;;;;;;;;;
2021/07/30 10:49:47;;;;;;;12.57;4.60;;;20.30;78.60;;;;;;6258111;22;20015;-84
2021/07/30 10:54:49;;;;;;;10.02;4.60;;;20.40;78.30;;;;;;6196475;23;20036;-83
2021/07/30 10:57:56;;;;;;;7.95;4.85;;;20.50;79.20;;;;;;6152157;23;20020;-85
2021/07/30 11:01:21;;;;;;;12.90;5.20;;;20.50;80.20;;;;;;6088654;23;20367;-87
2021/07/30 11:03:50;;;;;;;11.98;5.57;;;20.70;79.70;;;;;;6168956;23;20038;-85
2021/07/30 11:06:21;;;;;;;9.73;5.25;;;20.70;78.70;;;;;;6206597;23;20040;-84
2021/07/30 11:09:12;;;;;;;15.40;6.03;;;20.80;78.90;;;;;;6205384;23;20016;-86
2021/07/30 11:11:58;;;;;;;11.07;5.70;;;20.80;80.00;;;;;;6211353;23;20018;-86
2021/07/30 11:14:43;;;;;;;13.18;5.38;;;20.80;79.70;;;;;;6258596;22;20047;-85
2021/07/30 11:17:27;;;;;;;11.23;4.18;;;20.90;79.50;;;;;;6213547;22;20016;-86
2021/07/30 11:19:52;;;;;;;12.52;4.65;;;21.00;79.70;;;;;;6235631;22;20417;-85
2021/07/30 11:22:31;;;;;;;12.85;4.80;;;21.10;79.30;;;;;;6237948;22;20019;-86
2021/07/30 11:25:27;;;;;;;12.00;4.50;;;21.20;78.80;;;;;;6262381;22;20479;-86
2021/07/30 11:27:59;;;;;;;10.27;5.30;;;21.30;78.70;;;;;;6216156;22;20016;-85
2021/07/30 11:30:29;;;;;;;12.35;5.10;;;21.30;77.40;;;;;;6263525;22;20015;-85
2021/07/30 11:33:20;;;;;;;11.68;4.45;;;21.30;76.60;;;;;;6267212;22;20046;-86
2021/07/30 11:35:51;;;;;;;9.20;4.63;;;21.30;78.20;;;;;;6155656;23;20016;-85
2021/07/30 11:38:19;;;;;;;7.60;3.65;;;21.40;76.80;;;;;;6137037;23;20036;-86
2021/07/30 11:40:45;;;;;;;6.88;3.20;;;21.50;77.60;;;;;;6158211;23;20098;-87
2021/07/30 11:43:14;;;;;;;7.43;3.33;;;21.70;76.60;;;;;;6178820;23;20095;-85
2021/07/30 11:45:45;;;;;;;14.50;3.88;;;21.70;75.50;;;;;;6204355;23;20369;-86
2021/07/30 11:48:12;;;;;;;10.15;3.85;;;21.80;74.30;;;;;;6156426;23;20036;-86
2021/07/30 11:50:38;;;;;;;13.95;3.72;;;21.70;75.00;;;;;;6162037;23;20099;-86
2021/07/30 11:53:06;;;;;;;5.18;3.08;;;21.70;74.50;;;;;;6208472;23;20586;-85
2021/07/30 11:55:32;;;;;;;9.57;3.40;;;21.70;71.60;;;;;;6180236;23;20020;-85
2021/07/30 11:58:10;;;;;;;8.18;2.95;;;21.60;71.40;;;;;;6131013;23;20016;-86
2021/07/30 12:00:37;;;;;;;8.73;3.00;;;21.60;71.80;;;;;;6155172;23;20166;-85
2021/07/30 12:03:23;;;;;;;9.05;3.53;;;21.70;70.40;;;;;;6179405;23;20569;-85
2021/07/30 12:05:51;;;;;;;5.35;2.95;;;21.70;71.20;;;;;;6180033;23;20457;-86
2021/07/30 12:08:18;;;;;;;7.80;3.05;;;21.80;70.10;;;;;;6178226;23;20024;-84
2021/07/30 12:10:50;;;;;;;9.52;2.88;;;21.80;70.70;;;;;;6180581;23;20020;-86
2021/07/30 12:13:18;;;;;;;10.17;3.50;;;21.80;71.20;;;;;;6206039;23;20370;-86
2021/07/30 12:22:02;;;;;;;6.47;3.30;;;21.80;72.20;;;;;;6165737;23;20044;-86
2021/07/30 12:24:29;;;;;;;5.95;2.58;;;21.70;72.20;;;;;;6182597;23;20496;-85
2021/07/30 12:26:55;;;;;;;7.53;2.75;;;21.70;70.30;;;;;;6156930;23;20013;-87
2021/07/30 12:29:42;;;;;;;10.07;3.40;;;21.60;70.50;;;;;;6157563;23;20027;-86
2021/07/30 12:32:15;;;;;;;6.72;3.15;;;21.60;70.50;;;;;;6201327;22;20016;-86
2021/07/30 12:34:53;;;;;;;6.80;3.45;;;21.50;71.00;;;;;;6163705;23;20012;-86
2021/07/30 12:37:34;;;;;;;10.57;3.42;;;21.50;71.70;;;;;;6187215;23;20016;-88
2021/07/30 12:40:19;;;;;;;4.40;2.75;;;21.50;72.10;;;;;;6129804;23;20017;-87
2021/07/30 12:43:09;;;;;;;7.03;2.90;;;21.50;73.10;;;;;;6127948;23;20021;-87
2021/07/30 12:45:42;;;;;;;6.13;2.50;;;21.50;72.30;;;;;;6176796;23;20101;-87
2021/07/30 12:48:18;;;;;;;;;;;21.50;71.40;;;;;;6128998;23;20088;-88
2021/07/30 12:50:44;;;;;;;8.88;3.17;;;21.60;72.30;;;;;;6211294;23;19977;-87
2021/07/30 12:53:11;;;;;;;6.75;3.00;;;21.60;72.50;;;;;;6213255;23;20008;-86
2021/07/30 12:56:09;;;;;;;9.07;3.10;;;21.70;72.60;;;;;;6187401;23;20459;-87
2021/07/30 12:58:36;;;;;;;8.07;2.90;;;21.90;72.50;;;;;;6212692;23;20016;-85
2021/07/30 13:01:14;;;;;;;6.70;2.70;;;22.00;72.40;;;;;;6212090;23;20398;-88
2021/07/30 13:03:42;;;;;;;6.70;3.13;;;22.20;72.90;;;;;;6241467;22;20503;-88
2021/07/30 13:06:16;;;;;;;10.48;3.22;;;22.40;72.20;;;;;;6236990;23;20043;-87
2021/07/30 13:08:46;;;;;;;10.32;3.10;;;22.50;70.90;;;;;;6249065;23;20124;-87
2021/07/30 13:11:13;;;;;;;8.95;3.40;;;22.50;71.30;;;;;;6211914;23;20019;-86
2021/07/30 13:13:42;;;;;;;10.02;3.40;;;22.50;70.10;;;;;;6237832;22;20456;-86
2021/07/30 13:16:10;;;;;;;8.35;3.00;;;22.50;69.90;;;;;;6212748;23;20496;-86
2021/07/30 13:18:36;;;;;;;10.60;3.50;;;22.40;70.90;;;;;;6218547;22;20037;-87
2021/07/30 13:21:02;;;;;;;6.20;3.05;;;22.40;71.10;;;;;;6268807;22;20394;-87
2021/07/30 13:23:28;;;;;;;7.20;3.22;;;22.30;72.40;;;;;;6212824;22;20067;-86
2021/07/30 13:25:57;;;;;;;10.15;3.58;;;22.40;71.30;;;;;;6200029;23;20000;-87
2021/07/30 13:28:26;;;;;;;8.88;4.35;;;22.50;70.50;;;;;;6213550;23;20081;-87
2021/07/30 13:31:25;;;;;;;6.93;3.20;;;22.50;71.30;;;;;;6186203;23;20059;-88
2021/07/30 13:33:51;;;;;;;6.85;3.38;;;22.40;71.20;;;;;;6248040;22;20263;-85
2021/07/30 13:36:58;;;;;;;6.25;3.40;;;22.40;71.00;;;;;;6218947;22;20007;-86
2021/07/30 13:39:27;;;;;;;7.57;3.50;;;22.40;72.20;;;;;;6070867;23;20089;-87
2021/07/30 13:42:01;;;;;;;6.43;3.53;;;22.40;72.30;;;;;;6210319;22;20095;-86
2021/07/30 13:44:57;;;;;;;9.05;4.22;;;22.30;71.60;;;;;;6144471;23;20026;-87
2021/07/30 13:47:46;;;;;;;7.68;3.72;;;22.30;72.30;;;;;;6238719;23;20019;-87
2021/07/30 13:50:14;;;;;;;8.80;3.67;;;22.30;72.80;;;;;;6190236;23;20032;-86
2021/07/30 13:52:46;;;;;;;9.57;3.92;;;22.30;73.20;;;;;;6189183;23;20024;-88
2021/07/30 13:55:12;;;;;;;7.93;4.30;;;22.30;73.60;;;;;;6189588;23;20012;-87
2021/07/30 13:57:59;;;;;;;6.97;4.07;;;22.30;72.60;;;;;;6215048;23;20357;-86
2021/07/30 14:00:37;;;;;;;6.07;3.88;;;22.20;73.60;;;;;;6214054;23;20008;-86
2021/07/30 14:03:03;;;;;;;9.68;3.90;;;22.10;73.80;;;;;;6190124;23;20344;-87
2021/07/30 14:05:54;;;;;;;6.78;3.88;;;22.00;74.10;;;;;;6212815;23;20322;-87
2021/07/30 14:08:35;;;;;;;9.93;3.92;;;22.00;75.00;;;;;;6239575;23;20391;-87
2021/07/30 14:11:14;;;;;;;8.88;3.80;;;21.90;75.00;;;;;;6163831;23;20012;-87
2021/07/30 14:14:02;;;;;;;14.85;4.00;;;21.90;75.20;;;;;;6192591;23;20495;-88
2021/07/30 14:16:28;;;;;;;8.10;3.75;;;21.80;75.70;;;;;;6162175;23;20035;-87
2021/07/30 14:18:55;;;;;;;9.05;4.25;;;21.90;76.50;;;;;;6164012;23;20020;-85
2021/07/30 14:21:20;;;;;;;7.22;3.80;;;21.90;77.40;;;;;;6157991;23;20082;-85
2021/07/30 14:23:47;;;;;;;8.80;4.28;;;22.00;77.70;;;;;;6182434;23;20012;-87
2021/07/30 14:26:15;;;;;;;11.60;4.00;;;21.90;77.30;;;;;;6159440;23;20808;-86
2021/07/30 14:28:41;;;;;;;9.38;4.18;;;21.90;77.00;;;;;;6210604;23;20452;-87
2021/07/30 14:31:14;;;;;;;7.07;3.97;;;21.80;76.80;;;;;;6159724;23;20114;-86
2021/07/30 14:33:39;;;;;;;6.93;3.78;;;21.70;77.50;;;;;;6207632;23;20018;-86
2021/07/30 14:38:58;;;;;;;8.93;4.88;;;21.70;79.30;;;;;;6183560;23;20527;-86
2021/07/30 14:41:24;;;;;;;8.90;5.18;;;21.60;78.70;;;;;;6157388;23;20019;-87
2021/07/30 14:43:50;;;;;;;9.27;5.82;;;21.60;79.60;;;;;;6160153;23;20019;-88
2021/07/30 14:46:30;;;;;;;9.75;5.65;;;21.50;79.70;;;;;;6182812;23;20012;-86
2021/07/30 14:49:05;;;;;;;8.23;5.15;;;21.50;79.70;;;;;;6218192;23;20062;-87
2021/07/30 14:51:31;;;;;;;7.90;4.95;;;21.50;80.00;;;;;;6182787;23;20008;-86
2021/07/30 14:53:57;;;;;;;10.02;5.47;;;21.50;80.30;;;;;;6154888;23;20494;-88
2021/07/30 14:56:24;;;;;;;9.43;5.88;;;21.50;80.40;;;;;;6159278;23;20013;-87
2021/07/30 14:58:49;;;;;;;8.05;4.75;;;21.50;80.40;;;;;;6205344;23;20356;-88
2021/07/30 15:01:16;;;;;;;7.97;5.18;;;21.50;80.70;;;;;;6156084;23;20099;-87
2021/07/30 15:03:42;;;;;;;7.43;4.75;;;21.50;80.80;;;;;;6156924;23;20413;-87
2021/07/30 15:06:12;;;;;;;9.77;5.03;;;21.50;80.80;;;;;;6155365;23;20036;-87
2021/07/30 15:08:39;;;;;;;6.65;4.85;;;21.50;80.70;;;;;;6181363;23;20016;-86
2021/07/30 15:11:08;;;;;;;9.38;5.70;;;21.60;82.10;;;;;;6158921;23;20008;-87
2021/07/30 15:13:33;;;;;;;7.90;4.63;;;21.70;82.90;;;;;;6180929;23;20019;-87
2021/07/30 15:16:06;;;;;;;7.80;4.90;;;21.80;82.90;;;;;;6180736;23;20020;-86
2021/07/30 15:18:38;;;;;;;7.03;4.75;;;21.90;82.80;;;;;;6204143;23;20027;-86